sensor_id;sensor_type;location;lat;lon;timestamp;P1;durP1;ratioP1;P2;durP2;ratioP2
10335;SDS011;5213;53.548;9.930;2022-07-29T00:01:52;4.85;;;2.05;;
10335;SDS011;5213;53.548;9.930;2022-07-29T00:04:18;2.45;;;1.90;;
10335;SDS011;5213;53.548;9.930;2022-07-29T00:06:45;3.45;;;1.75;;
10335;SDS011;5213;53.548;9.930;2022-07-29T00:09:11;3.58;;;1.80;;
10335;SDS011;5213;53.548;9.930;2022-07-29T00:11:37;5.15;;;2.13;;
10335;SDS011;5213;53.548;9.930;2022-07-29T00:14:03;4.05;;;2.05;;
10335;SDS011;5213;53.548;9.930;2022-07-29T00:16:29;4.75;;;2.05;;
10335;SDS011;5213;53.548;9.930;2022-07-29T00:18:55;3.03;;;2.00;;
10335;SDS011;5213;53.548;9.930;2022-07-29T00:21:21;2.05;;;1.90;;
10335;SDS011;5213;53.548;9.930;2022-07-29T00:23:47;4.70;;;2.17;;
10335;SDS011;5213;53.548;9.930;2022-07-29T00:26:13;3.25;;;2.00;;
10335;SDS011;5213;53.548;9.930;2022-07-29T00:28:39;4.88;;;1.92;;
10335;SDS011;5213;53.548;9.930;2022-07-29T00:31:05;5.25;;;1.88;;
10335;SDS011;5213;53.548;9.930;2022-07-29T00:33:32;3.63;;;2.08;;
10335;SDS011;5213;53.548;9.930;2022-07-29T00:35:59;4.47;;;2.40;;
10335;SDS011;5213;53.548;9.930;2022-07-29T00:38:25;2.08;;;1.85;;
10335;SDS011;5213;53.548;9.930;2022-07-29T00:40:51;3.53;;;2.05;;
10335;SDS011;5213;53.548;9.930;2022-07-29T00:43:17;2.88;;;2.03;;
10335;SDS011;5213;53.548;9.930;2022-07-29T00:45:43;5.03;;;2.25;;
10335;SDS011;5213;53.548;9.930;2022-07-29T00:48:09;3.90;;;2.20;;
10335;SDS011;5213;53.548;9.930;2022-07-29T00:50:36;3.20;;;2.13;;
10335;SDS011;5213;53.548;9.930;2022-07-29T00:53:02;5.25;;;2.10;;
10335;SDS011;5213;53.548;9.930;2022-07-29T00:55:29;2.47;;;2.22;;
10335;SDS011;5213;53.548;9.930;2022-07-29T00:57:55;2.58;;;2.25;;
10335;SDS011;5213;53.548;9.930;2022-07-29T01:00:23;2.72;;;2.05;;
10335;SDS011;5213;53.548;9.930;2022-07-29T01:02:50;3.65;;;2.25;;
10335;SDS011;5213;53.548;9.930;2022-07-29T01:05:17;2.63;;;2.22;;
10335;SDS011;5213;53.548;9.930;2022-07-29T01:07:44;3.40;;;2.22;;
10335;SDS011;5213;53.548;9.930;2022-07-29T01:10:11;3.45;;;2.30;;
10335;SDS011;5213;53.548;9.930;2022-07-29T01:12:38;4.88;;;2.17;;
10335;SDS011;5213;53.548;9.930;2022-07-29T01:15:05;3.83;;;2.25;;
10335;SDS011;5213;53.548;9.930;2022-07-29T01:20:12;4.60;;;2.55;;
10335;SDS011;5213;53.548;9.930;2022-07-29T01:25:34;2.88;;;2.28;;
10335;SDS011;5213;53.548;9.930;2022-07-29T01:28:11;5.45;;;2.55;;
10335;SDS011;5213;53.548;9.930;2022-07-29T01:30:39;6.13;;;2.58;;
10335;SDS011;5213;53.548;9.930;2022-07-29T01:33:07;5.80;;;2.28;;
10335;SDS011;5213;53.548;9.930;2022-07-29T01:35:37;3.20;;;2.33;;
10335;SDS011;5213;53.548;9.930;2022-07-29T01:38:22;3.95;;;2.13;;
10335;SDS011;5213;53.548;9.930;2022-07-29T01:40:56;4.70;;;2.45;;
10335;SDS011;5213;53.548;9.930;2022-07-29T01:43:27;3.50;;;2.60;;
10335;SDS011;5213;53.548;9.930;2022-07-29T01:45:58;4.63;;;2.40;;
10335;SDS011;5213;53.548;9.930;2022-07-29T01:51:54;5.47;;;2.50;;
10335;SDS011;5213;53.548;9.930;2022-07-29T01:56:26;4.28;;;2.38;;
10335;SDS011;5213;53.548;9.930;2022-07-29T01:58:55;4.47;;;2.40;;
10335;SDS011;5213;53.548;9.930;2022-07-29T02:01:23;6.68;;;2.70;;
10335;SDS011;5213;53.548;9.930;2022-07-29T02:03:49;5.13;;;2.53;;
10335;SDS011;5213;53.548;9.930;2022-07-29T02:06:17;4.18;;;2.60;;
10335;SDS011;5213;53.548;9.930;2022-07-29T02:08:44;4.90;;;2.63;;
10335;SDS011;5213;53.548;9.930;2022-07-29T02:11:11;3.72;;;2.45;;
10335;SDS011;5213;53.548;9.930;2022-07-29T02:13:37;3.58;;;2.60;;
10335;SDS011;5213;53.548;9.930;2022-07-29T02:16:04;3.20;;;2.65;;
10335;SDS011;5213;53.548;9.930;2022-07-29T02:18:31;5.80;;;2.40;;
10335;SDS011;5213;53.548;9.930;2022-07-29T02:20:58;2.30;;;2.10;;
10335;SDS011;5213;53.548;9.930;2022-07-29T02:23:25;4.22;;;2.47;;
10335;SDS011;5213;53.548;9.930;2022-07-29T02:25:53;4.28;;;2.33;;
10335;SDS011;5213;53.548;9.930;2022-07-29T02:28:20;3.80;;;2.40;;
10335;SDS011;5213;53.548;9.930;2022-07-29T02:30:48;3.35;;;2.78;;
10335;SDS011;5213;53.548;9.930;2022-07-29T02:33:15;6.75;;;2.58;;
10335;SDS011;5213;53.548;9.930;2022-07-29T02:35:42;3.97;;;2.58;;
10335;SDS011;5213;53.548;9.930;2022-07-29T02:38:10;2.75;;;2.55;;
10335;SDS011;5213;53.548;9.930;2022-07-29T02:40:56;5.03;;;2.50;;
10335;SDS011;5213;53.548;9.930;2022-07-29T02:43:23;4.00;;;2.83;;
10335;SDS011;5213;53.548;9.930;2022-07-29T02:45:51;4.43;;;2.55;;
10335;SDS011;5213;53.548;9.930;2022-07-29T02:48:18;4.55;;;2.53;;
10335;SDS011;5213;53.548;9.930;2022-07-29T02:50:49;4.70;;;2.50;;
10335;SDS011;5213;53.548;9.930;2022-07-29T02:53:17;2.65;;;2.45;;
10335;SDS011;5213;53.548;9.930;2022-07-29T03:00:53;3.22;;;2.30;;
10335;SDS011;5213;53.548;9.930;2022-07-29T03:03:21;3.42;;;2.50;;
10335;SDS011;5213;53.548;9.930;2022-07-29T03:05:47;6.97;;;2.42;;
10335;SDS011;5213;53.548;9.930;2022-07-29T03:08:13;4.60;;;2.50;;
10335;SDS011;5213;53.548;9.930;2022-07-29T03:10:42;4.07;;;2.70;;
10335;SDS011;5213;53.548;9.930;2022-07-29T03:13:09;3.85;;;2.60;;
10335;SDS011;5213;53.548;9.930;2022-07-29T03:15:35;4.32;;;2.63;;
10335;SDS011;5213;53.548;9.930;2022-07-29T03:18:02;3.47;;;2.53;;
10335;SDS011;5213;53.548;9.930;2022-07-29T03:20:28;4.55;;;2.30;;
10335;SDS011;5213;53.548;9.930;2022-07-29T03:22:54;7.32;;;2.90;;
10335;SDS011;5213;53.548;9.930;2022-07-29T03:25:20;2.53;;;2.33;;
10335;SDS011;5213;53.548;9.930;2022-07-29T03:27:47;4.68;;;2.83;;
10335;SDS011;5213;53.548;9.930;2022-07-29T03:30:13;4.72;;;2.60;;
10335;SDS011;5213;53.548;9.930;2022-07-29T03:32:40;7.18;;;3.00;;
10335;SDS011;5213;53.548;9.930;2022-07-29T03:35:07;4.93;;;2.70;;
10335;SDS011;5213;53.548;9.930;2022-07-29T03:37:33;3.03;;;2.70;;
10335;SDS011;5213;53.548;9.930;2022-07-29T03:40:02;3.85;;;2.20;;
10335;SDS011;5213;53.548;9.930;2022-07-29T03:42:31;4.32;;;2.63;;
10335;SDS011;5213;53.548;9.930;2022-07-29T03:44:59;3.90;;;2.50;;
10335;SDS011;5213;53.548;9.930;2022-07-29T03:47:27;4.05;;;2.67;;
10335;SDS011;5213;53.548;9.930;2022-07-29T03:49:59;6.10;;;2.78;;
10335;SDS011;5213;53.548;9.930;2022-07-29T03:52:25;5.55;;;2.58;;
10335;SDS011;5213;53.548;9.930;2022-07-29T03:54:52;5.85;;;2.38;;
10335;SDS011;5213;53.548;9.930;2022-07-29T03:57:18;3.88;;;2.47;;
10335;SDS011;5213;53.548;9.930;2022-07-29T03:59:46;4.43;;;2.63;;
10335;SDS011;5213;53.548;9.930;2022-07-29T04:02:12;3.90;;;2.75;;
10335;SDS011;5213;53.548;9.930;2022-07-29T04:04:38;4.70;;;2.50;;
10335;SDS011;5213;53.548;9.930;2022-07-29T04:07:04;4.13;;;2.95;;
10335;SDS011;5213;53.548;9.930;2022-07-29T04:09:31;5.72;;;2.72;;
10335;SDS011;5213;53.548;9.930;2022-07-29T04:11:57;6.03;;;2.72;;
10335;SDS011;5213;53.548;9.930;2022-07-29T04:14:23;5.70;;;2.92;;
10335;SDS011;5213;53.548;9.930;2022-07-29T04:16:49;4.47;;;2.33;;
10335;SDS011;5213;53.548;9.930;2022-07-29T04:19:15;4.35;;;2.95;;
10335;SDS011;5213;53.548;9.930;2022-07-29T04:21:41;4.90;;;2.80;;
10335;SDS011;5213;53.548;9.930;2022-07-29T04:24:10;6.22;;;2.88;;
10335;SDS011;5213;53.548;9.930;2022-07-29T04:26:36;6.68;;;3.10;;
10335;SDS011;5213;53.548;9.930;2022-07-29T04:29:02;4.38;;;2.70;;
10335;SDS011;5213;53.548;9.930;2022-07-29T04:31:28;4.60;;;2.92;;
10335;SDS011;5213;53.548;9.930;2022-07-29T04:33:54;5.95;;;2.60;;
10335;SDS011;5213;53.548;9.930;2022-07-29T04:36:20;5.63;;;2.95;;
10335;SDS011;5213;53.548;9.930;2022-07-29T04:38:46;3.80;;;2.97;;
10335;SDS011;5213;53.548;9.930;2022-07-29T04:41:12;3.08;;;2.55;;
10335;SDS011;5213;53.548;9.930;2022-07-29T04:43:39;5.43;;;2.53;;
10335;SDS011;5213;53.548;9.930;2022-07-29T04:46:05;4.85;;;2.70;;
10335;SDS011;5213;53.548;9.930;2022-07-29T04:48:32;3.33;;;2.88;;
10335;SDS011;5213;53.548;9.930;2022-07-29T04:50:58;5.07;;;2.70;;
10335;SDS011;5213;53.548;9.930;2022-07-29T04:53:24;5.07;;;2.80;;
10335;SDS011;5213;53.548;9.930;2022-07-29T04:55:50;5.35;;;2.60;;
10335;SDS011;5213;53.548;9.930;2022-07-29T04:58:17;6.18;;;2.60;;
10335;SDS011;5213;53.548;9.930;2022-07-29T05:00:43;7.60;;;2.50;;
10335;SDS011;5213;53.548;9.930;2022-07-29T05:03:09;4.20;;;2.58;;
10335;SDS011;5213;53.548;9.930;2022-07-29T05:05:35;5.40;;;2.83;;
10335;SDS011;5213;53.548;9.930;2022-07-29T05:08:01;3.95;;;2.92;;
10335;SDS011;5213;53.548;9.930;2022-07-29T05:10:27;5.07;;;2.53;;
10335;SDS011;5213;53.548;9.930;2022-07-29T05:12:54;5.03;;;2.70;;
10335;SDS011;5213;53.548;9.930;2022-07-29T05:15:20;5.90;;;2.60;;
10335;SDS011;5213;53.548;9.930;2022-07-29T05:17:46;6.72;;;2.90;;
10335;SDS011;5213;53.548;9.930;2022-07-29T05:20:12;3.85;;;2.70;;
10335;SDS011;5213;53.548;9.930;2022-07-29T05:22:38;4.75;;;2.50;;
10335;SDS011;5213;53.548;9.930;2022-07-29T05:25:04;4.35;;;2.50;;
10335;SDS011;5213;53.548;9.930;2022-07-29T05:27:30;4.22;;;2.42;;
10335;SDS011;5213;53.548;9.930;2022-07-29T05:29:56;2.50;;;2.30;;
10335;SDS011;5213;53.548;9.930;2022-07-29T05:32:22;5.45;;;2.33;;
10335;SDS011;5213;53.548;9.930;2022-07-29T05:34:49;3.95;;;2.10;;
10335;SDS011;5213;53.548;9.930;2022-07-29T05:37:15;5.22;;;2.60;;
10335;SDS011;5213;53.548;9.930;2022-07-29T05:39:41;4.28;;;2.58;;
10335;SDS011;5213;53.548;9.930;2022-07-29T05:42:08;6.32;;;2.90;;
10335;SDS011;5213;53.548;9.930;2022-07-29T05:44:37;5.63;;;2.70;;
10335;SDS011;5213;53.548;9.930;2022-07-29T05:47:04;5.65;;;2.83;;
10335;SDS011;5213;53.548;9.930;2022-07-29T05:49:30;3.67;;;2.30;;
10335;SDS011;5213;53.548;9.930;2022-07-29T05:51:56;5.45;;;2.50;;
10335;SDS011;5213;53.548;9.930;2022-07-29T05:54:23;3.50;;;2.20;;
10335;SDS011;5213;53.548;9.930;2022-07-29T05:56:49;5.78;;;2.88;;
10335;SDS011;5213;53.548;9.930;2022-07-29T05:59:15;6.20;;;2.78;;
10335;SDS011;5213;53.548;9.930;2022-07-29T06:01:41;2.63;;;2.35;;
10335;SDS011;5213;53.548;9.930;2022-07-29T06:04:07;5.60;;;2.90;;
10335;SDS011;5213;53.548;9.930;2022-07-29T06:06:33;3.42;;;2.22;;
10335;SDS011;5213;53.548;9.930;2022-07-29T06:09:00;4.53;;;2.70;;
10335;SDS011;5213;53.548;9.930;2022-07-29T06:11:26;4.78;;;2.30;;
10335;SDS011;5213;53.548;9.930;2022-07-29T06:13:52;4.70;;;2.38;;
10335;SDS011;5213;53.548;9.930;2022-07-29T06:16:19;3.33;;;2.20;;
10335;SDS011;5213;53.548;9.930;2022-07-29T06:18:45;6.68;;;2.58;;
10335;SDS011;5213;53.548;9.930;2022-07-29T06:21:11;3.90;;;2.45;;
10335;SDS011;5213;53.548;9.930;2022-07-29T06:23:38;6.78;;;2.70;;
10335;SDS011;5213;53.548;9.930;2022-07-29T06:26:04;3.75;;;2.25;;
10335;SDS011;5213;53.548;9.930;2022-07-29T06:28:30;4.82;;;2.70;;
10335;SDS011;5213;53.548;9.930;2022-07-29T06:30:56;3.35;;;2.53;;
10335;SDS011;5213;53.548;9.930;2022-07-29T06:33:22;5.18;;;2.40;;
10335;SDS011;5213;53.548;9.930;2022-07-29T06:35:49;4.35;;;2.42;;
10335;SDS011;5213;53.548;9.930;2022-07-29T06:38:15;3.58;;;2.28;;
10335;SDS011;5213;53.548;9.930;2022-07-29T06:40:44;3.33;;;2.30;;
10335;SDS011;5213;53.548;9.930;2022-07-29T06:43:37;4.40;;;2.40;;
10335;SDS011;5213;53.548;9.930;2022-07-29T06:46:05;5.93;;;2.58;;
10335;SDS011;5213;53.548;9.930;2022-07-29T06:48:32;3.40;;;2.70;;
10335;SDS011;5213;53.548;9.930;2022-07-29T06:50:58;4.45;;;2.70;;
10335;SDS011;5213;53.548;9.930;2022-07-29T06:53:24;3.75;;;2.28;;
10335;SDS011;5213;53.548;9.930;2022-07-29T06:55:51;3.55;;;2.50;;
10335;SDS011;5213;53.548;9.930;2022-07-29T06:58:17;4.18;;;2.45;;
10335;SDS011;5213;53.548;9.930;2022-07-29T07:00:45;5.63;;;2.55;;
10335;SDS011;5213;53.548;9.930;2022-07-29T07:03:11;6.05;;;2.65;;
10335;SDS011;5213;53.548;9.930;2022-07-29T07:05:37;2.97;;;2.50;;
10335;SDS011;5213;53.548;9.930;2022-07-29T07:08:04;3.55;;;2.25;;
10335;SDS011;5213;53.548;9.930;2022-07-29T07:10:30;5.60;;;2.58;;
10335;SDS011;5213;53.548;9.930;2022-07-29T07:12:56;4.28;;;2.30;;
10335;SDS011;5213;53.548;9.930;2022-07-29T07:15:23;3.05;;;2.35;;
10335;SDS011;5213;53.548;9.930;2022-07-29T07:17:49;2.60;;;2.40;;
10335;SDS011;5213;53.548;9.930;2022-07-29T07:20:18;5.30;;;2.35;;
10335;SDS011;5213;53.548;9.930;2022-07-29T07:22:44;2.75;;;2.45;;
10335;SDS011;5213;53.548;9.930;2022-07-29T07:25:12;3.55;;;2.47;;
10335;SDS011;5213;53.548;9.930;2022-07-29T07:27:38;6.50;;;2.45;;
10335;SDS011;5213;53.548;9.930;2022-07-29T07:30:05;5.15;;;2.97;;
10335;SDS011;5213;53.548;9.930;2022-07-29T07:32:32;5.68;;;2.67;;
10335;SDS011;5213;53.548;9.930;2022-07-29T07:34:58;2.90;;;2.65;;
10335;SDS011;5213;53.548;9.930;2022-07-29T07:37:24;3.50;;;2.88;;
10335;SDS011;5213;53.548;9.930;2022-07-29T07:39:53;4.13;;;2.60;;
10335;SDS011;5213;53.548;9.930;2022-07-29T07:42:20;3.85;;;2.25;;
10335;SDS011;5213;53.548;9.930;2022-07-29T07:44:46;3.38;;;2.40;;
10335;SDS011;5213;53.548;9.930;2022-07-29T07:47:13;7.10;;;2.75;;
10335;SDS011;5213;53.548;9.930;2022-07-29T07:49:39;2.88;;;2.50;;
10335;SDS011;5213;53.548;9.930;2022-07-29T07:52:05;4.07;;;2.50;;
10335;SDS011;5213;53.548;9.930;2022-07-29T07:54:31;3.40;;;2.47;;
10335;SDS011;5213;53.548;9.930;2022-07-29T07:56:57;4.10;;;2.28;;
10335;SDS011;5213;53.548;9.930;2022-07-29T07:59:23;6.10;;;2.50;;
10335;SDS011;5213;53.548;9.930;2022-07-29T08:01:49;2.92;;;2.28;;
10335;SDS011;5213;53.548;9.930;2022-07-29T08:04:16;3.92;;;2.38;;
10335;SDS011;5213;53.548;9.930;2022-07-29T08:06:42;2.92;;;2.40;;
10335;SDS011;5213;53.548;9.930;2022-07-29T08:09:08;5.30;;;2.42;;
10335;SDS011;5213;53.548;9.930;2022-07-29T08:11:34;2.95;;;2.38;;
10335;SDS011;5213;53.548;9.930;2022-07-29T08:14:00;5.90;;;2.83;;
10335;SDS011;5213;53.548;9.930;2022-07-29T08:16:26;4.03;;;2.50;;
10335;SDS011;5213;53.548;9.930;2022-07-29T08:18:53;4.00;;;2.53;;
10335;SDS011;5213;53.548;9.930;2022-07-29T08:21:22;5.20;;;2.38;;
10335;SDS011;5213;53.548;9.930;2022-07-29T08:23:48;5.28;;;2.65;;
10335;SDS011;5213;53.548;9.930;2022-07-29T08:26:17;3.20;;;2.40;;
10335;SDS011;5213;53.548;9.930;2022-07-29T08:28:43;5.22;;;2.85;;
10335;SDS011;5213;53.548;9.930;2022-07-29T08:31:10;3.00;;;2.40;;
10335;SDS011;5213;53.548;9.930;2022-07-29T08:33:37;2.58;;;2.33;;
10335;SDS011;5213;53.548;9.930;2022-07-29T08:36:03;4.88;;;2.35;;
10335;SDS011;5213;53.548;9.930;2022-07-29T08:38:29;5.07;;;2.35;;
10335;SDS011;5213;53.548;9.930;2022-07-29T08:40:55;5.30;;;2.65;;
10335;SDS011;5213;53.548;9.930;2022-07-29T08:43:21;3.17;;;2.60;;
10335;SDS011;5213;53.548;9.930;2022-07-29T08:45:48;3.38;;;2.53;;
10335;SDS011;5213;53.548;9.930;2022-07-29T08:48:16;3.88;;;2.30;;
10335;SDS011;5213;53.548;9.930;2022-07-29T08:50:42;6.00;;;2.60;;
10335;SDS011;5213;53.548;9.930;2022-07-29T08:53:12;4.97;;;2.20;;
10335;SDS011;5213;53.548;9.930;2022-07-29T08:55:43;4.75;;;2.58;;
10335;SDS011;5213;53.548;9.930;2022-07-29T08:58:10;4.53;;;2.38;;
10335;SDS011;5213;53.548;9.930;2022-07-29T09:00:36;5.18;;;2.22;;
10335;SDS011;5213;53.548;9.930;2022-07-29T09:03:02;3.63;;;2.20;;
10335;SDS011;5213;53.548;9.930;2022-07-29T09:05:29;5.15;;;2.33;;
10335;SDS011;5213;53.548;9.930;2022-07-29T09:07:57;4.72;;;2.10;;
10335;SDS011;5213;53.548;9.930;2022-07-29T09:10:23;2.97;;;2.22;;
10335;SDS011;5213;53.548;9.930;2022-07-29T09:12:49;3.97;;;2.08;;
10335;SDS011;5213;53.548;9.930;2022-07-29T09:15:15;5.63;;;2.30;;
10335;SDS011;5213;53.548;9.930;2022-07-29T09:17:42;2.88;;;2.28;;
10335;SDS011;5213;53.548;9.930;2022-07-29T09:20:09;3.53;;;2.90;;
10335;SDS011;5213;53.548;9.930;2022-07-29T09:22:35;4.07;;;2.17;;
10335;SDS011;5213;53.548;9.930;2022-07-29T09:25:02;2.60;;;2.05;;
10335;SDS011;5213;53.548;9.930;2022-07-29T09:27:28;2.50;;;2.13;;
10335;SDS011;5213;53.548;9.930;2022-07-29T09:32:30;4.93;;;2.10;;
10335;SDS011;5213;53.548;9.930;2022-07-29T09:37:42;3.50;;;2.10;;
10335;SDS011;5213;53.548;9.930;2022-07-29T09:40:15;2.78;;;1.98;;
10335;SDS011;5213;53.548;9.930;2022-07-29T09:42:42;3.65;;;1.92;;
10335;SDS011;5213;53.548;9.930;2022-07-29T09:45:08;4.93;;;2.10;;
10335;SDS011;5213;53.548;9.930;2022-07-29T09:50:07;4.78;;;2.08;;
10335;SDS011;5213;53.548;9.930;2022-07-29T09:52:41;5.38;;;2.10;;
10335;SDS011;5213;53.548;9.930;2022-07-29T09:55:10;3.50;;;2.03;;
10335;SDS011;5213;53.548;9.930;2022-07-29T09:57:36;3.85;;;2.30;;
10335;SDS011;5213;53.548;9.930;2022-07-29T10:00:09;3.40;;;2.25;;
10335;SDS011;5213;53.548;9.930;2022-07-29T10:02:35;3.28;;;2.10;;
10335;SDS011;5213;53.548;9.930;2022-07-29T10:05:03;3.78;;;2.03;;
10335;SDS011;5213;53.548;9.930;2022-07-29T10:08:12;2.20;;;2.00;;
10335;SDS011;5213;53.548;9.930;2022-07-29T10:10:20;3.78;;;1.80;;
10335;SDS011;5213;53.548;9.930;2022-07-29T10:15:16;2.70;;;1.88;;
10335;SDS011;5213;53.548;9.930;2022-07-29T10:17:42;4.35;;;1.90;;
10335;SDS011;5213;53.548;9.930;2022-07-29T10:20:09;2.45;;;2.00;;
10335;SDS011;5213;53.548;9.930;2022-07-29T10:22:35;3.28;;;2.00;;
10335;SDS011;5213;53.548;9.930;2022-07-29T10:25:02;5.32;;;2.50;;
10335;SDS011;5213;53.548;9.930;2022-07-29T10:27:28;3.85;;;2.30;;
10335;SDS011;5213;53.548;9.930;2022-07-29T10:29:54;7.70;;;2.15;;
10335;SDS011;5213;53.548;9.930;2022-07-29T10:37:33;3.28;;;1.77;;
10335;SDS011;5213;53.548;9.930;2022-07-29T10:42:49;2.50;;;1.80;;
10335;SDS011;5213;53.548;9.930;2022-07-29T10:45:16;5.63;;;1.95;;
10335;SDS011;5213;53.548;9.930;2022-07-29T10:47:43;4.70;;;2.08;;
10335;SDS011;5213;53.548;9.930;2022-07-29T10:50:10;3.03;;;1.90;;
10335;SDS011;5213;53.548;9.930;2022-07-29T10:58:10;3.45;;;1.80;;
10335;SDS011;5213;53.548;9.930;2022-07-29T11:00:37;3.00;;;1.90;;
10335;SDS011;5213;53.548;9.930;2022-07-29T11:03:03;3.47;;;1.80;;
10335;SDS011;5213;53.548;9.930;2022-07-29T11:05:29;4.22;;;2.00;;
10335;SDS011;5213;53.548;9.930;2022-07-29T11:10:46;2.47;;;1.70;;
10335;SDS011;5213;53.548;9.930;2022-07-29T11:13:12;3.47;;;1.85;;
10335;SDS011;5213;53.548;9.930;2022-07-29T11:18:19;2.97;;;1.90;;
10335;SDS011;5213;53.548;9.930;2022-07-29T11:20:47;4.13;;;1.67;;
10335;SDS011;5213;53.548;9.930;2022-07-29T11:28:35;4.57;;;1.60;;
10335;SDS011;5213;53.548;9.930;2022-07-29T11:31:05;5.22;;;1.90;;
10335;SDS011;5213;53.548;9.930;2022-07-29T11:33:33;1.83;;;1.73;;
10335;SDS011;5213;53.548;9.930;2022-07-29T11:38:35;2.72;;;2.10;;
10335;SDS011;5213;53.548;9.930;2022-07-29T11:44:01;4.30;;;2.05;;
10335;SDS011;5213;53.548;9.930;2022-07-29T11:49:14;2.30;;;1.85;;
10335;SDS011;5213;53.548;9.930;2022-07-29T11:51:49;2.30;;;1.83;;
10335;SDS011;5213;53.548;9.930;2022-07-29T11:54:15;4.80;;;1.90;;
10335;SDS011;5213;53.548;9.930;2022-07-29T11:56:47;4.45;;;2.20;;
10335;SDS011;5213;53.548;9.930;2022-07-29T11:59:13;3.13;;;1.95;;
10335;SDS011;5213;53.548;9.930;2022-07-29T12:01:51;4.25;;;1.95;;
10335;SDS011;5213;53.548;9.930;2022-07-29T12:04:17;2.97;;;1.80;;
10335;SDS011;5213;53.548;9.930;2022-07-29T12:06:43;3.33;;;2.00;;
10335;SDS011;5213;53.548;9.930;2022-07-29T12:09:14;3.67;;;2.08;;
10335;SDS011;5213;53.548;9.930;2022-07-29T12:11:40;2.28;;;1.65;;
10335;SDS011;5213;53.548;9.930;2022-07-29T12:14:06;2.97;;;1.80;;
10335;SDS011;5213;53.548;9.930;2022-07-29T12:16:35;4.38;;;2.00;;
10335;SDS011;5213;53.548;9.930;2022-07-29T12:19:02;3.65;;;1.70;;
10335;SDS011;5213;53.548;9.930;2022-07-29T12:21:45;2.55;;;1.77;;
10335;SDS011;5213;53.548;9.930;2022-07-29T12:24:11;3.60;;;1.90;;
10335;SDS011;5213;53.548;9.930;2022-07-29T12:26:48;5.00;;;2.17;;
10335;SDS011;5213;53.548;9.930;2022-07-29T12:29:15;5.43;;;2.10;;
10335;SDS011;5213;53.548;9.930;2022-07-29T12:31:41;3.92;;;2.00;;
10335;SDS011;5213;53.548;9.930;2022-07-29T12:34:08;3.22;;;1.70;;
10335;SDS011;5213;53.548;9.930;2022-07-29T12:36:34;4.47;;;2.17;;
10335;SDS011;5213;53.548;9.930;2022-07-29T12:39:01;6.13;;;2.30;;
10335;SDS011;5213;53.548;9.930;2022-07-29T12:41:28;3.40;;;1.80;;
10335;SDS011;5213;53.548;9.930;2022-07-29T12:43:54;4.68;;;2.13;;
10335;SDS011;5213;53.548;9.930;2022-07-29T12:46:20;3.35;;;2.17;;
10335;SDS011;5213;53.548;9.930;2022-07-29T12:48:49;3.10;;;2.30;;
10335;SDS011;5213;53.548;9.930;2022-07-29T12:51:15;4.13;;;2.10;;
10335;SDS011;5213;53.548;9.930;2022-07-29T12:53:41;3.70;;;1.98;;
10335;SDS011;5213;53.548;9.930;2022-07-29T12:56:27;4.18;;;1.88;;
10335;SDS011;5213;53.548;9.930;2022-07-29T12:58:53;4.70;;;1.92;;
10335;SDS011;5213;53.548;9.930;2022-07-29T13:01:19;4.13;;;1.88;;
10335;SDS011;5213;53.548;9.930;2022-07-29T13:03:52;5.88;;;2.20;;
10335;SDS011;5213;53.548;9.930;2022-07-29T13:11:42;2.85;;;1.85;;
10335;SDS011;5213;53.548;9.930;2022-07-29T13:14:10;3.90;;;1.70;;
10335;SDS011;5213;53.548;9.930;2022-07-29T13:16:40;5.15;;;1.90;;
10335;SDS011;5213;53.548;9.930;2022-07-29T13:19:31;3.88;;;1.83;;
10335;SDS011;5213;53.548;9.930;2022-07-29T13:21:57;7.00;;;1.90;;
10335;SDS011;5213;53.548;9.930;2022-07-29T13:24:23;2.67;;;1.63;;
10335;SDS011;5213;53.548;9.930;2022-07-29T13:26:50;4.07;;;1.73;;
10335;SDS011;5213;53.548;9.930;2022-07-29T13:29:16;3.35;;;1.83;;
10335;SDS011;5213;53.548;9.930;2022-07-29T13:31:42;4.57;;;2.00;;
10335;SDS011;5213;53.548;9.930;2022-07-29T13:34:09;4.07;;;2.10;;
10335;SDS011;5213;53.548;9.930;2022-07-29T13:36:35;3.80;;;2.10;;
10335;SDS011;5213;53.548;9.930;2022-07-29T13:39:02;3.55;;;1.88;;
10335;SDS011;5213;53.548;9.930;2022-07-29T13:41:28;5.55;;;2.20;;
10335;SDS011;5213;53.548;9.930;2022-07-29T13:43:54;4.88;;;1.85;;
10335;SDS011;5213;53.548;9.930;2022-07-29T13:46:20;3.58;;;1.60;;
10335;SDS011;5213;53.548;9.930;2022-07-29T13:48:46;5.05;;;1.85;;
10335;SDS011;5213;53.548;9.930;2022-07-29T13:51:12;6.15;;;2.83;;
10335;SDS011;5213;53.548;9.930;2022-07-29T13:53:38;4.07;;;2.53;;
10335;SDS011;5213;53.548;9.930;2022-07-29T13:56:04;5.10;;;2.50;;
10335;SDS011;5213;53.548;9.930;2022-07-29T13:58:31;4.97;;;2.50;;
10335;SDS011;5213;53.548;9.930;2022-07-29T14:00:58;5.38;;;2.60;;
10335;SDS011;5213;53.548;9.930;2022-07-29T14:03:24;5.10;;;2.78;;
10335;SDS011;5213;53.548;9.930;2022-07-29T14:05:50;3.70;;;2.67;;
10335;SDS011;5213;53.548;9.930;2022-07-29T14:08:16;2.72;;;2.20;;
10335;SDS011;5213;53.548;9.930;2022-07-29T14:10:42;2.88;;;2.10;;
10335;SDS011;5213;53.548;9.930;2022-07-29T14:13:09;8.52;;;2.67;;
10335;SDS011;5213;53.548;9.930;2022-07-29T14:15:35;8.55;;;2.60;;
10335;SDS011;5213;53.548;9.930;2022-07-29T14:18:01;7.65;;;2.30;;
10335;SDS011;5213;53.548;9.930;2022-07-29T14:20:27;4.97;;;2.90;;
10335;SDS011;5213;53.548;9.930;2022-07-29T14:22:54;6.80;;;3.22;;
10335;SDS011;5213;53.548;9.930;2022-07-29T14:25:21;6.05;;;2.40;;
10335;SDS011;5213;53.548;9.930;2022-07-29T14:27:47;8.98;;;2.50;;
10335;SDS011;5213;53.548;9.930;2022-07-29T14:30:13;5.30;;;2.35;;
10335;SDS011;5213;53.548;9.930;2022-07-29T14:32:39;4.50;;;2.17;;
10335;SDS011;5213;53.548;9.930;2022-07-29T14:35:05;5.60;;;2.60;;
10335;SDS011;5213;53.548;9.930;2022-07-29T14:37:32;6.32;;;2.75;;
10335;SDS011;5213;53.548;9.930;2022-07-29T14:40:00;5.32;;;2.60;;
10335;SDS011;5213;53.548;9.930;2022-07-29T14:42:28;5.35;;;3.00;;
10335;SDS011;5213;53.548;9.930;2022-07-29T14:44:54;5.55;;;2.67;;
10335;SDS011;5213;53.548;9.930;2022-07-29T14:47:20;4.32;;;2.72;;
10335;SDS011;5213;53.548;9.930;2022-07-29T14:49:47;3.38;;;2.30;;
10335;SDS011;5213;53.548;9.930;2022-07-29T14:52:13;5.00;;;2.20;;
10335;SDS011;5213;53.548;9.930;2022-07-29T14:54:39;4.45;;;2.25;;
10335;SDS011;5213;53.548;9.930;2022-07-29T14:57:05;5.93;;;2.45;;
10335;SDS011;5213;53.548;9.930;2022-07-29T14:59:31;4.80;;;2.30;;
10335;SDS011;5213;53.548;9.930;2022-07-29T15:01:57;4.07;;;2.42;;
10335;SDS011;5213;53.548;9.930;2022-07-29T15:04:23;3.78;;;2.20;;
10335;SDS011;5213;53.548;9.930;2022-07-29T15:06:50;6.22;;;2.80;;
10335;SDS011;5213;53.548;9.930;2022-07-29T15:09:16;6.07;;;3.13;;
10335;SDS011;5213;53.548;9.930;2022-07-29T15:11:43;4.45;;;2.65;;
10335;SDS011;5213;53.548;9.930;2022-07-29T15:14:09;3.83;;;2.30;;
10335;SDS011;5213;53.548;9.930;2022-07-29T15:16:35;5.15;;;2.60;;
10335;SDS011;5213;53.548;9.930;2022-07-29T15:19:02;5.70;;;2.78;;
10335;SDS011;5213;53.548;9.930;2022-07-29T15:21:28;3.08;;;2.53;;
10335;SDS011;5213;53.548;9.930;2022-07-29T15:23:54;5.13;;;2.20;;
10335;SDS011;5213;53.548;9.930;2022-07-29T15:26:20;3.40;;;2.03;;
10335;SDS011;5213;53.548;9.930;2022-07-29T15:28:46;5.35;;;3.08;;
10335;SDS011;5213;53.548;9.930;2022-07-29T15:31:12;4.93;;;2.60;;
10335;SDS011;5213;53.548;9.930;2022-07-29T15:33:39;6.90;;;3.35;;
10335;SDS011;5213;53.548;9.930;2022-07-29T15:36:05;7.72;;;3.58;;
10335;SDS011;5213;53.548;9.930;2022-07-29T15:38:31;5.03;;;3.28;;
10335;SDS011;5213;53.548;9.930;2022-07-29T15:40:58;4.85;;;3.42;;
10335;SDS011;5213;53.548;9.930;2022-07-29T15:43:24;5.03;;;2.72;;
10335;SDS011;5213;53.548;9.930;2022-07-29T15:45:50;6.22;;;2.45;;
10335;SDS011;5213;53.548;9.930;2022-07-29T15:48:37;4.25;;;2.53;;
10335;SDS011;5213;53.548;9.930;2022-07-29T15:51:03;3.30;;;1.98;;
10335;SDS011;5213;53.548;9.930;2022-07-29T15:53:29;4.70;;;2.70;;
10335;SDS011;5213;53.548;9.930;2022-07-29T15:55:55;5.25;;;2.42;;
10335;SDS011;5213;53.548;9.930;2022-07-29T15:58:21;3.28;;;2.42;;
10335;SDS011;5213;53.548;9.930;2022-07-29T16:00:47;2.53;;;2.10;;
10335;SDS011;5213;53.548;9.930;2022-07-29T16:03:13;3.92;;;2.13;;
10335;SDS011;5213;53.548;9.930;2022-07-29T16:05:40;5.90;;;2.40;;